createdAt,value
2023-02-22T00:04:55.584Z,7.90
2023-02-22T00:07:24.971Z,7.85
2023-02-22T00:09:53.562Z,8.00
2023-02-22T00:12:22.098Z,8.30
2023-02-22T00:14:52.804Z,6.47
2023-02-22T00:17:23.845Z,6.45
2023-02-22T00:19:52.382Z,7.57
2023-02-22T00:22:21.509Z,7.90
2023-02-22T00:24:52.429Z,7.15
2023-02-22T00:27:20.995Z,10.48
2023-02-22T00:29:51.610Z,9.93
2023-02-22T00:32:19.965Z,10.60
2023-02-22T00:34:48.300Z,10.48
2023-02-22T00:37:18.291Z,10.25
2023-02-22T00:39:48.337Z,8.77
2023-02-22T00:42:16.700Z,8.38
2023-02-22T00:44:46.782Z,9.82
2023-02-22T00:47:17.510Z,9.20
2023-02-22T00:49:46.014Z,7.72
2023-02-22T00:52:14.370Z,7.68
2023-02-22T00:54:42.996Z,6.70
2023-02-22T00:57:11.540Z,7.13
2023-02-22T00:59:40.116Z,6.45
2023-02-22T01:02:12.876Z,8.15
2023-02-22T01:04:47.068Z,8.48
2023-02-22T01:07:17.873Z,10.73
2023-02-22T01:09:47.911Z,10.45
2023-02-22T01:12:16.161Z,8.45
2023-02-22T01:14:44.628Z,8.10
2023-02-22T01:17:12.865Z,12.70
2023-02-22T01:19:44.854Z,10.95
2023-02-22T01:22:19.691Z,8.50
2023-02-22T01:24:48.385Z,7.65
2023-02-22T01:27:16.945Z,7.20
2023-02-22T01:29:45.336Z,7.45
2023-02-22T01:32:15.325Z,6.10
2023-02-22T01:34:43.733Z,7.05
2023-02-22T01:37:11.919Z,7.22
2023-02-22T01:39:43.947Z,7.40
2023-02-22T01:42:14.741Z,7.60
2023-02-22T01:44:43.617Z,6.90
2023-02-22T01:47:12.282Z,6.97
2023-02-22T01:49:46.078Z,6.35
2023-02-22T01:52:17.940Z,8.93
2023-02-22T01:54:50.771Z,7.57
2023-02-22T01:57:24.927Z,7.30
2023-02-22T01:59:57.708Z,6.70
2023-02-22T02:02:27.541Z,6.03
2023-02-22T02:04:57.640Z,6.50
2023-02-22T02:07:29.584Z,5.85
2023-02-22T02:10:01.427Z,6.65
2023-02-22T02:12:32.706Z,6.20
2023-02-22T02:15:22.040Z,7.05
2023-02-22T02:17:52.149Z,5.65
2023-02-22T02:20:31.977Z,5.82
2023-02-22T02:23:11.957Z,6.50
2023-02-22T02:26:06.915Z,5.93
2023-02-22T02:29:13.430Z,5.20
2023-02-22T02:32:29.467Z,6.15
2023-02-22T02:35:05.382Z,6.03
2023-02-22T02:37:39.410Z,6.10
2023-02-22T02:40:19.292Z,7.50
2023-02-22T02:42:55.720Z,8.45
2023-02-22T02:45:30.497Z,11.60
2023-02-22T02:48:09.930Z,9.68
2023-02-22T02:50:44.818Z,9.70
2023-02-22T02:53:13.744Z,8.30
2023-02-22T02:55:42.025Z,8.88
2023-02-22T02:58:10.792Z,7.78
2023-02-22T03:00:43.234Z,8.60
2023-02-22T03:03:53.444Z,9.10
2023-02-22T03:06:53.726Z,7.90
2023-02-22T03:09:30.560Z,7.28
2023-02-22T03:12:09.132Z,7.13
2023-02-22T03:14:44.024Z,7.40
2023-02-22T03:17:19.326Z,7.75
2023-02-22T03:19:53.407Z,7.78
2023-02-22T03:22:27.732Z,8.75
2023-02-22T03:25:07.175Z,9.43
2023-02-22T03:27:43.805Z,9.07
2023-02-22T03:30:17.215Z,9.15
2023-02-22T03:32:52.123Z,8.25
2023-02-22T03:35:24.385Z,7.63
2023-02-22T03:37:59.745Z,7.75
2023-02-22T03:40:33.704Z,7.18
2023-02-22T03:43:07.889Z,7.95
2023-02-22T03:45:38.844Z,7.22
2023-02-22T03:48:13.798Z,7.30
2023-02-22T03:50:43.556Z,6.93
2023-02-22T03:53:11.822Z,7.32
2023-02-22T03:55:40.363Z,6.75
2023-02-22T03:58:14.859Z,6.43
2023-02-22T04:00:44.607Z,7.50
2023-02-22T04:03:13.303Z,6.95
2023-02-22T04:05:42.674Z,6.03
2023-02-22T04:08:12.489Z,6.53
2023-02-22T04:10:41.090Z,6.75
2023-02-22T04:13:10.584Z,6.57
2023-02-22T04:15:38.880Z,6.43
2023-02-22T04:18:07.432Z,6.85
2023-02-22T04:20:35.767Z,7.50
2023-02-22T04:23:04.196Z,7.45
2023-02-22T04:25:36.978Z,7.50
2023-02-22T04:28:06.119Z,7.57
2023-02-22T04:30:34.450Z,7.63
2023-02-22T04:33:02.988Z,8.05
2023-02-22T04:35:35.289Z,7.40
2023-02-22T04:38:04.357Z,8.20
2023-02-22T04:40:35.038Z,8.02
2023-02-22T04:43:03.551Z,8.15
2023-02-22T04:45:32.405Z,7.72
2023-02-22T04:48:00.975Z,7.85
2023-02-22T04:50:31.972Z,8.63
2023-02-22T04:53:00.198Z,8.23
2023-02-22T04:55:29.115Z,8.20
2023-02-22T04:57:59.265Z,9.38
2023-02-22T05:00:27.752Z,8.75
2023-02-22T05:02:56.678Z,8.10
2023-02-22T05:05:25.921Z,8.35
2023-02-22T05:07:54.614Z,8.25
2023-02-22T05:10:23.901Z,7.88
2023-02-22T05:12:53.899Z,7.40
2023-02-22T05:15:25.414Z,7.78
2023-02-22T05:17:55.572Z,8.65
2023-02-22T05:20:28.165Z,8.73
2023-02-22T05:22:58.198Z,8.38
2023-02-22T05:25:26.683Z,7.90
2023-02-22T05:27:57.316Z,8.05
2023-02-22T05:30:34.391Z,7.95
2023-02-22T05:33:03.108Z,8.27
2023-02-22T05:35:31.988Z,8.93
2023-02-22T05:38:02.113Z,7.53
2023-02-22T05:40:33.011Z,8.60
2023-02-22T05:43:02.219Z,9.57
2023-02-22T05:45:34.142Z,9.02
2023-02-22T05:48:05.036Z,9.65
2023-02-22T05:50:33.690Z,9.10
2023-02-22T05:53:06.834Z,9.18
2023-02-22T05:55:36.601Z,8.68
2023-02-22T05:58:06.132Z,9.15
2023-02-22T06:00:38.379Z,9.40
2023-02-22T06:03:09.132Z,10.05
2023-02-22T06:05:37.821Z,10.85
2023-02-22T06:08:08.630Z,10.45
2023-02-22T06:10:38.214Z,9.80
2023-02-22T06:13:08.641Z,10.30
2023-02-22T06:15:40.740Z,11.45
2023-02-22T06:18:14.151Z,12.55
2023-02-22T06:20:42.785Z,12.02
2023-02-22T06:23:11.409Z,11.32
2023-02-22T06:25:39.869Z,11.27
2023-02-22T06:28:08.374Z,10.73
2023-02-22T06:30:38.387Z,11.50
2023-02-22T06:33:07.102Z,11.35
2023-02-22T06:35:37.899Z,12.25
2023-02-22T06:38:06.721Z,10.48
2023-02-22T06:40:35.290Z,10.75
2023-02-22T06:43:03.508Z,10.45
2023-02-22T06:45:33.287Z,11.32
2023-02-22T06:48:05.322Z,11.13
2023-02-22T06:50:35.952Z,10.68
2023-02-22T06:53:04.843Z,10.90
2023-02-22T06:55:38.018Z,11.18
2023-02-22T06:58:07.846Z,11.40
2023-02-22T07:00:36.481Z,10.55
2023-02-22T07:03:08.170Z,11.75
2023-02-22T07:05:36.538Z,10.85
2023-02-22T07:08:09.876Z,11.27
2023-02-22T07:10:41.705Z,11.93
2023-02-22T07:13:10.865Z,12.80
2023-02-22T07:15:39.231Z,13.15
2023-02-22T07:18:12.096Z,13.98
2023-02-22T07:20:40.960Z,13.43
2023-02-22T07:23:09.241Z,13.05
2023-02-22T07:25:37.791Z,13.55
2023-02-22T07:28:06.684Z,15.55
2023-02-22T07:30:35.870Z,16.10
2023-02-22T07:33:05.409Z,13.90
2023-02-22T07:35:39.056Z,13.73
2023-02-22T07:38:10.125Z,13.07
2023-02-22T07:40:41.289Z,17.10
2023-02-22T07:43:17.608Z,16.38
2023-02-22T07:45:47.114Z,14.50
2023-02-22T07:48:17.566Z,15.98
2023-02-22T07:50:47.736Z,16.20
2023-02-22T07:53:20.138Z,20.65
2023-02-22T07:55:51.274Z,17.90
2023-02-22T07:58:21.418Z,19.35
2023-02-22T08:00:52.520Z,17.98
2023-02-22T08:03:25.428Z,16.42
2023-02-22T08:05:56.830Z,16.85
2023-02-22T08:08:29.150Z,16.35
2023-02-22T08:10:57.915Z,15.20
2023-02-22T08:13:26.359Z,16.30
2023-02-22T08:15:56.359Z,13.88
2023-02-22T08:18:25.753Z,14.63
2023-02-22T08:20:56.445Z,14.60
2023-02-22T08:23:26.983Z,14.23
2023-02-22T08:25:55.447Z,13.35
2023-02-22T08:28:26.275Z,15.10
2023-02-22T08:30:54.959Z,13.73
2023-02-22T08:33:25.020Z,13.50
2023-02-22T08:35:55.191Z,14.07
2023-02-22T08:38:27.745Z,15.25
2023-02-22T08:40:56.541Z,14.88
2023-02-22T08:43:25.203Z,14.82
2023-02-22T08:45:57.600Z,15.27
2023-02-22T08:48:28.486Z,14.25
2023-02-22T08:50:58.304Z,13.80
2023-02-22T08:53:26.643Z,13.25
2023-02-22T08:55:57.605Z,13.85
2023-02-22T08:58:26.228Z,14.00
2023-02-22T09:00:55.513Z,14.00
2023-02-22T09:03:24.630Z,13.40
2023-02-22T09:05:55.136Z,13.57
2023-02-22T09:08:25.045Z,13.13
2023-02-22T09:10:53.557Z,13.75
2023-02-22T09:13:24.257Z,13.50
2023-02-22T09:15:52.536Z,13.77
2023-02-22T09:18:21.263Z,12.52
2023-02-22T09:20:49.739Z,13.23
2023-02-22T09:23:21.700Z,13.18
2023-02-22T09:25:53.965Z,12.88
2023-02-22T09:28:22.729Z,12.87
2023-02-22T09:30:51.618Z,13.80
2023-02-22T09:33:21.767Z,13.02
2023-02-22T09:35:51.182Z,12.95
2023-02-22T09:38:23.002Z,12.90
2023-02-22T09:40:55.173Z,12.60
2023-02-22T09:43:36.036Z,12.23
2023-02-22T09:46:19.127Z,13.30
2023-02-22T09:48:59.357Z,12.32
2023-02-22T09:51:36.759Z,12.00
2023-02-22T09:54:14.808Z,11.35
2023-02-22T09:56:48.990Z,11.35
2023-02-22T09:59:22.942Z,10.00
2023-02-22T10:01:58.934Z,9.70
2023-02-22T10:04:42.085Z,10.70
2023-02-22T10:07:19.819Z,10.13
2023-02-22T10:09:51.514Z,9.43
2023-02-22T10:12:30.779Z,9.45
2023-02-22T10:15:34.602Z,9.10
2023-02-22T10:20:49.316Z,9.93
2023-02-22T10:23:28.619Z,9.75
2023-02-22T10:26:10.088Z,10.15
2023-02-22T10:28:58.205Z,11.10
2023-02-22T10:31:33.485Z,10.65
2023-02-22T10:34:10.778Z,10.13
2023-02-22T10:36:39.634Z,9.98
2023-02-22T10:39:21.918Z,10.65
2023-02-22T10:41:56.072Z,8.60
2023-02-22T10:44:26.024Z,8.77
2023-02-22T10:46:54.981Z,8.43
2023-02-22T10:49:26.739Z,8.43
2023-02-22T10:52:03.175Z,7.70
2023-02-22T10:54:38.305Z,8.73
2023-02-22T10:57:13.591Z,8.30
2023-02-22T10:59:43.870Z,8.38
2023-02-22T11:02:22.105Z,7.72
2023-02-22T11:04:52.869Z,8.20
2023-02-22T11:07:24.775Z,8.07
2023-02-22T11:09:55.107Z,7.40
2023-02-22T11:12:34.800Z,8.77
2023-02-22T11:15:18.899Z,8.63
2023-02-22T11:17:50.318Z,9.18
2023-02-22T11:20:25.611Z,9.15
2023-02-22T11:22:56.452Z,9.65
2023-02-22T11:25:29.135Z,9.52
2023-02-22T11:28:00.483Z,9.25
2023-02-22T11:30:33.872Z,10.40
2023-02-22T11:33:25.655Z,10.10
2023-02-22T11:35:55.927Z,9.80
2023-02-22T11:38:25.430Z,10.20
2023-02-22T11:41:12.294Z,9.55
2023-02-22T11:43:41.215Z,10.15
2023-02-22T11:46:15.151Z,9.60
2023-02-22T11:48:59.580Z,10.43
2023-02-22T11:51:45.035Z,10.07
2023-02-22T11:54:29.664Z,10.20
2023-02-22T11:57:16.628Z,10.38
2023-02-22T11:59:55.975Z,10.15
2023-02-22T12:02:51.827Z,10.70
2023-02-22T12:05:48.955Z,11.13
2023-02-22T12:08:26.850Z,9.70
2023-02-22T12:11:10.668Z,10.20
2023-02-22T12:13:55.030Z,10.73
2023-02-22T12:16:38.046Z,11.02
2023-02-22T12:19:22.352Z,10.40
2023-02-22T12:22:02.677Z,9.95
2023-02-22T12:24:38.329Z,10.27
2023-02-22T12:27:12.708Z,9.57
2023-02-22T12:29:44.988Z,11.27
2023-02-22T12:32:19.601Z,11.50
2023-02-22T12:34:54.457Z,10.43
2023-02-22T12:37:28.947Z,10.43
2023-02-22T12:40:08.555Z,10.30
2023-02-22T12:42:54.063Z,9.43
2023-02-22T12:45:30.039Z,10.30
2023-02-22T12:48:15.583Z,10.88
2023-02-22T12:50:46.519Z,10.27
2023-02-22T12:53:26.323Z,10.55
2023-02-22T12:56:00.636Z,10.05
2023-02-22T12:58:34.324Z,10.88
2023-02-22T13:01:07.046Z,10.88
2023-02-22T13:03:38.791Z,10.63
2023-02-22T13:06:22.770Z,10.25
2023-02-22T13:09:03.729Z,10.63
2023-02-22T13:11:37.681Z,9.90
2023-02-22T13:14:18.394Z,9.05
2023-02-22T13:16:53.523Z,9.50
2023-02-22T13:19:43.215Z,9.20
2023-02-22T13:22:19.665Z,8.52
2023-02-22T13:25:02.425Z,8.73
2023-02-22T13:27:38.849Z,8.88
2023-02-22T13:30:16.256Z,8.43
2023-02-22T13:33:07.278Z,8.15
2023-02-22T13:35:52.326Z,7.80
2023-02-22T13:38:52.089Z,8.02
2023-02-22T13:41:57.600Z,7.82
2023-02-22T13:45:00.041Z,8.48
2023-02-22T13:48:02.207Z,8.60
2023-02-22T13:51:04.716Z,7.72
2023-02-22T13:53:45.179Z,7.57
2023-02-22T13:56:17.059Z,8.25
2023-02-22T13:58:50.962Z,8.65
2023-02-22T14:01:38.989Z,8.05
2023-02-22T14:04:39.892Z,8.68
2023-02-22T14:07:59.612Z,8.32
2023-02-22T14:10:51.893Z,8.40
2023-02-22T14:13:22.583Z,8.50
2023-02-22T14:16:21.057Z,8.90
2023-02-22T14:18:54.521Z,8.82
2023-02-22T14:21:24.863Z,8.35
2023-02-22T14:23:58.484Z,8.07
2023-02-22T14:26:29.836Z,8.40
2023-02-22T14:29:03.036Z,8.90
2023-02-22T14:31:55.807Z,8.63
2023-02-22T14:34:48.723Z,8.50
2023-02-22T14:37:19.786Z,9.52
2023-02-22T14:39:51.481Z,9.57
2023-02-22T14:42:24.422Z,8.30
2023-02-22T14:47:29.659Z,7.75
2023-02-22T14:50:07.419Z,7.47
2023-02-22T14:52:39.736Z,8.27
2023-02-22T14:55:19.314Z,8.32
2023-02-22T14:58:00.301Z,8.07
2023-02-22T15:00:37.802Z,7.15
2023-02-22T15:03:08.172Z,6.80
2023-02-22T15:05:39.833Z,7.78
2023-02-22T15:08:11.330Z,7.00
2023-02-22T15:10:46.304Z,6.78
2023-02-22T15:13:23.915Z,8.13
2023-02-22T15:16:01.564Z,7.53
2023-02-22T15:18:35.254Z,7.80
2023-02-22T15:21:13.200Z,7.28
2023-02-22T15:23:44.452Z,7.57
2023-02-22T15:26:24.325Z,8.02
2023-02-22T15:28:56.877Z,7.60
2023-02-22T15:31:31.698Z,7.55
2023-02-22T15:34:11.952Z,6.90
2023-02-22T15:36:40.597Z,7.00
2023-02-22T15:39:25.572Z,6.93
2023-02-22T15:42:06.518Z,7.15
2023-02-22T15:44:40.784Z,7.05
2023-02-22T15:47:13.383Z,7.90
2023-02-22T15:49:45.448Z,7.53
2023-02-22T15:52:21.202Z,7.70
2023-02-22T15:55:06.720Z,6.72
2023-02-22T15:57:40.887Z,7.45
2023-02-22T16:00:22.085Z,7.75
2023-02-22T16:02:51.981Z,6.72
2023-02-22T16:05:21.648Z,7.35
2023-02-22T16:07:52.418Z,6.78
2023-02-22T16:10:30.015Z,6.90
2023-02-22T16:13:31.135Z,7.03
2023-02-22T16:16:03.288Z,7.13
2023-02-22T16:18:34.081Z,8.20
2023-02-22T16:21:10.487Z,7.50
2023-02-22T16:23:46.438Z,7.30
2023-02-22T16:26:24.565Z,7.47
2023-02-22T16:28:57.458Z,10.68
2023-02-22T16:31:29.421Z,9.20
2023-02-22T16:34:00.955Z,8.80
2023-02-22T16:36:41.573Z,8.90
2023-02-22T16:39:10.802Z,8.73
2023-02-22T16:41:39.766Z,8.85
2023-02-22T16:44:09.086Z,8.27
2023-02-22T16:46:38.317Z,7.78
2023-02-22T16:49:06.982Z,8.20
2023-02-22T16:51:45.067Z,7.53
2023-02-22T16:54:15.516Z,8.18
2023-02-22T16:56:43.962Z,8.27
2023-02-22T16:59:15.526Z,7.55
2023-02-22T17:01:48.057Z,8.23
2023-02-22T17:04:17.724Z,7.82
2023-02-22T17:06:47.454Z,8.45
2023-02-22T17:09:16.265Z,8.05
2023-02-22T17:11:46.257Z,7.60
2023-02-22T17:14:26.149Z,9.50
2023-02-22T17:16:54.702Z,9.43
2023-02-22T17:19:28.656Z,9.25
2023-02-22T17:22:01.109Z,9.77
2023-02-22T17:24:30.025Z,8.57
2023-02-22T17:27:02.856Z,10.40
2023-02-22T17:29:31.302Z,9.75
2023-02-22T17:32:00.550Z,12.18
2023-02-22T17:34:30.084Z,11.50
2023-02-22T17:36:59.878Z,12.10
2023-02-22T17:39:28.645Z,14.32
2023-02-22T17:41:57.835Z,16.20
2023-02-22T17:44:27.202Z,16.35
2023-02-22T17:46:56.920Z,16.88
2023-02-22T17:49:25.731Z,16.27
2023-02-22T17:51:54.119Z,15.57
2023-02-22T17:54:24.674Z,15.82
2023-02-22T17:56:54.123Z,15.93
2023-02-22T17:59:22.879Z,16.02
2023-02-22T18:01:52.808Z,15.63
2023-02-22T18:04:21.151Z,17.20
2023-02-22T18:06:52.420Z,16.17
2023-02-22T18:09:21.877Z,15.88
2023-02-22T18:11:51.944Z,15.77
2023-02-22T18:14:20.623Z,14.90
2023-02-22T18:16:49.458Z,17.08
2023-02-22T18:19:22.090Z,16.35
2023-02-22T18:21:52.587Z,15.32
2023-02-22T18:24:21.748Z,15.88
2023-02-22T18:26:53.135Z,16.05
2023-02-22T18:29:22.560Z,16.50
2023-02-22T18:31:51.132Z,17.63
2023-02-22T18:34:19.520Z,15.38
2023-02-22T18:36:48.713Z,15.40
2023-02-22T18:39:17.626Z,16.02
2023-02-22T18:41:48.695Z,16.25
2023-02-22T18:44:19.301Z,17.27
2023-02-22T18:46:49.083Z,16.35
2023-02-22T18:49:17.625Z,16.38
2023-02-22T18:51:47.460Z,16.50
2023-02-22T18:54:15.916Z,16.40
2023-02-22T18:56:44.575Z,17.25
2023-02-22T18:59:16.315Z,16.60
2023-02-22T19:01:49.191Z,16.80
2023-02-22T19:04:19.781Z,17.40
2023-02-22T19:06:51.579Z,17.35
2023-02-22T19:09:20.308Z,17.65
2023-02-22T19:11:50.893Z,17.40
2023-02-22T19:14:19.784Z,18.08
2023-02-22T19:16:50.827Z,19.77
2023-02-22T19:19:20.998Z,19.30
2023-02-22T19:21:49.723Z,19.92
2023-02-22T19:24:19.746Z,20.63
2023-02-22T19:27:04.476Z,19.33
2023-02-22T19:29:33.208Z,20.90
2023-02-22T19:32:03.049Z,22.63
2023-02-22T19:34:33.824Z,20.48
2023-02-22T19:37:02.191Z,20.63
2023-02-22T19:39:33.822Z,20.75
2023-02-22T19:42:06.031Z,20.20
2023-02-22T19:44:34.615Z,23.23
2023-02-22T19:47:08.996Z,21.10
2023-02-22T19:49:41.257Z,21.35
2023-02-22T19:52:09.903Z,21.47
2023-02-22T19:54:41.526Z,21.98
2023-02-22T19:57:10.212Z,21.58
2023-02-22T19:59:39.138Z,22.80
2023-02-22T20:02:12.147Z,23.35
2023-02-22T20:04:41.793Z,22.48
2023-02-22T20:07:10.375Z,22.75
2023-02-22T20:09:39.836Z,22.35
2023-02-22T20:12:09.063Z,22.58
2023-02-22T20:14:37.797Z,23.25
2023-02-22T20:17:08.092Z,22.88
2023-02-22T20:19:40.290Z,23.27
2023-02-22T20:22:08.713Z,22.47
2023-02-22T20:24:37.761Z,23.08
2023-02-22T20:27:06.533Z,22.90
2023-02-22T20:29:35.583Z,23.83
2023-02-22T20:32:06.080Z,23.70
2023-02-22T20:34:36.353Z,23.10
2023-02-22T20:37:06.165Z,24.23
2023-02-22T20:39:35.472Z,23.05
2023-02-22T20:42:06.693Z,21.65
2023-02-22T20:44:35.420Z,21.50
2023-02-22T20:47:05.373Z,21.17
2023-02-22T20:49:33.974Z,22.35
2023-02-22T20:52:02.899Z,23.65
2023-02-22T20:54:34.559Z,22.52
2023-02-22T20:57:02.941Z,24.08
2023-02-22T20:59:32.582Z,21.60
2023-02-22T21:02:01.935Z,22.15
2023-02-22T21:04:33.986Z,22.73
2023-02-22T21:07:03.192Z,23.48
2023-02-22T21:09:36.933Z,23.42
2023-02-22T21:12:14.593Z,22.30
2023-02-22T21:14:45.019Z,22.08
2023-02-22T21:17:13.527Z,22.27
2023-02-22T21:19:45.278Z,22.42
2023-02-22T21:22:17.490Z,22.88
2023-02-22T21:24:48.253Z,21.97
2023-02-22T21:27:17.061Z,23.05
2023-02-22T21:29:46.793Z,22.40
2023-02-22T21:32:21.025Z,23.10
2023-02-22T21:34:54.813Z,22.02
2023-02-22T21:37:25.658Z,22.42
2023-02-22T21:39:55.475Z,22.75
2023-02-22T21:42:27.178Z,23.35
2023-02-22T21:44:56.439Z,22.67
2023-02-22T21:47:25.359Z,22.90
2023-02-22T21:49:55.956Z,21.65
2023-02-22T21:52:25.569Z,22.27
2023-02-22T21:54:55.642Z,22.23
2023-02-22T21:57:26.568Z,23.58
2023-02-22T21:59:55.302Z,23.70
2023-02-22T22:02:24.538Z,24.63
2023-02-22T22:04:53.849Z,24.75
2023-02-22T22:07:23.007Z,25.30
2023-02-22T22:09:56.760Z,25.10
2023-02-22T22:12:37.475Z,25.52
2023-02-22T22:15:08.906Z,26.65
2023-02-22T22:17:37.378Z,26.20
2023-02-22T22:20:06.722Z,26.02
2023-02-22T22:22:35.111Z,26.38
2023-02-22T22:25:06.450Z,24.90
2023-02-22T22:27:39.010Z,26.27
2023-02-22T22:30:11.255Z,25.80
2023-02-22T22:32:41.826Z,26.63
2023-02-22T22:35:14.727Z,26.48
2023-02-22T22:37:47.510Z,26.08
2023-02-22T22:40:17.399Z,25.30
2023-02-22T22:42:49.117Z,27.35
2023-02-22T22:45:23.132Z,27.30
2023-02-22T22:47:55.033Z,27.98
2023-02-22T22:50:26.541Z,26.95
2023-02-22T22:52:57.110Z,26.75
2023-02-22T22:55:26.062Z,28.27
2023-02-22T22:57:55.875Z,27.88
2023-02-22T23:00:32.412Z,27.27
2023-02-22T23:03:01.359Z,28.52
2023-02-22T23:05:30.586Z,27.42
2023-02-22T23:08:04.803Z,29.58
2023-02-22T23:10:33.434Z,30.77
2023-02-22T23:13:10.768Z,30.35
2023-02-22T23:15:43.483Z,29.88
2023-02-22T23:18:12.399Z,28.77
2023-02-22T23:20:41.024Z,29.20
2023-02-22T23:23:14.685Z,29.38
2023-02-22T23:25:52.658Z,27.55
2023-02-22T23:28:24.053Z,28.45
2023-02-22T23:30:57.011Z,29.23
2023-02-22T23:35:56.199Z,27.98
2023-02-22T23:38:26.275Z,28.35
2023-02-22T23:40:57.363Z,27.45
2023-02-22T23:43:32.609Z,28.80
2023-02-22T23:46:10.872Z,29.70
2023-02-22T23:48:46.767Z,31.70
2023-02-22T23:51:18.869Z,30.17
2023-02-22T23:53:49.590Z,28.38
2023-02-22T23:56:22.814Z,28.63
